createdAt,value
2023-02-11T00:01:19.635Z,-4.06
2023-02-11T00:03:46.335Z,-4.10
2023-02-11T00:06:13.091Z,-4.11
2023-02-11T00:08:40.207Z,-4.10
2023-02-11T00:11:07.907Z,-4.15
2023-02-11T00:13:34.422Z,-4.21
2023-02-11T00:16:06.801Z,-4.22
2023-02-11T00:18:33.256Z,-4.31
2023-02-11T00:20:59.969Z,-4.28
2023-02-11T00:23:26.354Z,-4.27
2023-02-11T00:25:53.124Z,-4.34
2023-02-11T00:28:19.967Z,-4.36
2023-02-11T00:30:54.772Z,-4.38
2023-02-11T00:33:21.473Z,-4.35
2023-02-11T00:35:48.380Z,-4.46
2023-02-11T00:38:14.996Z,-4.42
2023-02-11T00:40:41.526Z,-4.45
2023-02-11T00:43:08.429Z,-4.44
2023-02-11T00:45:35.031Z,-4.51
2023-02-11T00:48:01.624Z,-4.55
2023-02-11T00:50:28.445Z,-4.50
2023-02-11T00:52:55.029Z,-4.49
2023-02-11T00:55:21.742Z,-4.52
2023-02-11T00:57:48.398Z,-4.54
2023-02-11T01:00:15.370Z,-4.54
2023-02-11T01:02:41.796Z,-4.57
2023-02-11T01:05:08.736Z,-4.63
2023-02-11T01:07:35.254Z,-4.63
2023-02-11T01:10:01.833Z,-4.69
2023-02-11T01:12:28.444Z,-4.61
2023-02-11T01:14:55.000Z,-4.66
2023-02-11T01:17:21.420Z,-4.70
2023-02-11T01:19:48.033Z,-4.73
2023-02-11T01:22:14.694Z,-4.70
2023-02-11T01:24:41.110Z,-4.72
2023-02-11T01:27:07.781Z,-4.79
2023-02-11T01:29:34.442Z,-4.73
2023-02-11T01:32:02.241Z,-4.73
2023-02-11T01:34:29.129Z,-4.82
2023-02-11T01:36:59.581Z,-4.84
2023-02-11T01:39:27.405Z,-4.78
2023-02-11T01:41:54.432Z,-4.86
2023-02-11T01:44:37.589Z,-4.89
2023-02-11T01:47:07.108Z,-4.91
2023-02-11T01:49:37.141Z,-4.90
2023-02-11T01:52:10.341Z,-4.76
2023-02-11T01:55:02.976Z,-4.68
2023-02-11T01:57:32.395Z,-4.62
2023-02-11T02:00:14.296Z,-4.56
2023-02-11T02:02:46.053Z,-4.53
2023-02-11T02:05:32.561Z,-4.50
2023-02-11T02:08:09.644Z,-4.43
2023-02-11T02:10:40.690Z,-4.35
2023-02-11T02:13:07.342Z,-4.31
2023-02-11T02:15:36.187Z,-4.31
2023-02-11T02:18:14.635Z,-4.25
2023-02-11T02:20:56.237Z,-4.13
2023-02-11T02:23:36.893Z,-4.12
2023-02-11T02:26:41.094Z,-4.03
2023-02-11T02:29:26.633Z,-4.09
2023-02-11T02:32:11.791Z,-4.10
2023-02-11T02:34:56.581Z,-4.04
2023-02-11T02:37:31.472Z,-4.01
2023-02-11T02:40:03.380Z,-3.99
2023-02-11T02:42:31.657Z,-3.94
2023-02-11T02:44:59.410Z,-3.92
2023-02-11T02:47:26.109Z,-3.96
2023-02-11T02:49:52.735Z,-3.94
2023-02-11T02:52:42.217Z,-3.96
2023-02-11T02:55:13.279Z,-3.95
2023-02-11T02:58:17.700Z,-3.90
2023-02-11T03:01:00.574Z,-3.89
2023-02-11T03:03:58.673Z,-3.92
2023-02-11T03:06:39.246Z,-3.98
2023-02-11T03:09:20.034Z,-3.99
2023-02-11T03:11:46.734Z,-4.05
2023-02-11T03:14:17.404Z,-4.03
2023-02-11T03:16:45.896Z,-4.09
2023-02-11T03:19:26.499Z,-4.09
2023-02-11T03:21:53.720Z,-4.11
2023-02-11T03:24:34.772Z,-4.07
2023-02-11T03:27:12.742Z,-4.07
2023-02-11T03:30:15.110Z,-4.12
2023-02-11T03:32:51.949Z,-4.17
2023-02-11T03:35:32.576Z,-4.13
2023-02-11T03:38:19.264Z,-4.18
2023-02-11T03:40:46.182Z,-4.16
2023-02-11T03:43:18.905Z,-4.23
2023-02-11T03:45:48.653Z,-4.25
2023-02-11T03:48:20.623Z,-4.13
2023-02-11T03:50:50.813Z,-4.18
2023-02-11T03:53:19.014Z,-4.14
2023-02-11T03:55:47.744Z,-4.08
2023-02-11T03:58:14.960Z,-4.01
2023-02-11T04:00:42.902Z,-3.99
2023-02-11T04:03:10.592Z,-3.99
2023-02-11T04:05:37.747Z,-3.95
2023-02-11T04:08:05.003Z,-3.89
2023-02-11T04:10:31.699Z,-3.88
2023-02-11T04:12:58.660Z,-3.78
2023-02-11T04:15:26.050Z,-3.76
2023-02-11T04:17:52.809Z,-3.77
2023-02-11T04:20:19.576Z,-3.68
2023-02-11T04:22:46.166Z,-3.65
2023-02-11T04:25:13.521Z,-3.53
2023-02-11T04:27:40.128Z,-3.48
2023-02-11T04:30:10.270Z,-3.45
2023-02-11T04:32:36.712Z,-3.35
2023-02-11T04:35:03.817Z,-3.27
2023-02-11T04:37:30.236Z,-3.21
2023-02-11T04:39:56.877Z,-3.17
2023-02-11T04:42:23.332Z,-3.08
2023-02-11T04:44:49.799Z,-3.07
2023-02-11T04:47:16.212Z,-2.93
2023-02-11T04:49:42.605Z,-2.91
2023-02-11T04:52:09.148Z,-2.92
2023-02-11T04:54:35.670Z,-2.93
2023-02-11T04:57:02.097Z,-2.84
2023-02-11T04:59:28.484Z,-2.86
2023-02-11T05:01:55.237Z,-2.81
2023-02-11T05:04:21.704Z,-2.74
2023-02-11T05:06:48.401Z,-2.78
2023-02-11T05:09:15.173Z,-2.69
2023-02-11T05:11:41.873Z,-2.67
2023-02-11T05:14:08.559Z,-2.56
2023-02-11T05:16:35.253Z,-2.63
2023-02-11T05:19:01.677Z,-2.63
2023-02-11T05:21:28.481Z,-2.60
2023-02-11T05:23:55.061Z,-2.58
2023-02-11T05:26:21.481Z,-2.51
2023-02-11T05:28:48.260Z,-2.46
2023-02-11T05:31:15.134Z,-2.41
2023-02-11T05:33:42.190Z,-2.48
2023-02-11T05:36:11.452Z,-2.38
2023-02-11T05:38:39.051Z,-2.43
2023-02-11T05:41:06.243Z,-2.43
2023-02-11T05:43:35.023Z,-2.35
2023-02-11T05:46:01.632Z,-2.40
2023-02-11T05:48:28.116Z,-2.36
2023-02-11T05:50:54.815Z,-2.38
2023-02-11T05:53:22.021Z,-2.33
2023-02-11T05:55:48.967Z,-2.36
2023-02-11T05:58:16.160Z,-2.29
2023-02-11T06:00:42.733Z,-2.40
2023-02-11T06:03:09.266Z,-2.42
2023-02-11T06:05:38.030Z,-2.29
2023-02-11T06:08:04.749Z,-2.36
2023-02-11T06:10:31.358Z,-2.23
2023-02-11T06:12:57.905Z,-2.23
2023-02-11T06:15:24.253Z,-2.32
2023-02-11T06:17:50.652Z,-2.37
2023-02-11T06:20:17.367Z,-2.35
2023-02-11T06:22:44.551Z,-2.35
2023-02-11T06:25:11.722Z,-2.30
2023-02-11T06:27:39.349Z,-2.26
2023-02-11T06:30:08.732Z,-2.20
2023-02-11T06:32:43.951Z,-2.30
2023-02-11T06:35:12.404Z,-2.26
2023-02-11T06:37:40.072Z,-2.36
2023-02-11T06:40:06.846Z,-2.37
2023-02-11T06:42:33.277Z,-2.37
2023-02-11T06:44:59.928Z,-2.27
2023-02-11T06:47:26.336Z,-2.29
2023-02-11T06:49:52.697Z,-2.27
2023-02-11T06:52:19.264Z,-2.35
2023-02-11T06:54:45.902Z,-2.39
2023-02-11T06:57:12.277Z,-2.40
2023-02-11T06:59:38.897Z,-2.38
2023-02-11T07:02:05.362Z,-2.38
2023-02-11T07:04:32.143Z,-2.32
2023-02-11T07:06:58.576Z,-2.26
2023-02-11T07:09:24.962Z,-2.27
2023-02-11T07:11:51.759Z,-2.25
2023-02-11T07:14:18.414Z,-2.21
2023-02-11T07:16:45.088Z,-2.08
2023-02-11T07:19:11.791Z,-1.97
2023-02-11T07:21:38.365Z,-1.89
2023-02-11T07:24:11.065Z,-1.80
2023-02-11T07:26:38.121Z,-1.72
2023-02-11T07:29:05.025Z,-1.64
2023-02-11T07:31:32.398Z,-1.63
2023-02-11T07:34:01.265Z,-1.71
2023-02-11T07:36:29.416Z,-1.78
2023-02-11T07:38:56.102Z,-1.56
2023-02-11T07:41:24.604Z,-1.52
2023-02-11T07:43:51.581Z,-1.58
2023-02-11T07:46:21.359Z,-1.56
2023-02-11T07:48:48.380Z,-1.63
2023-02-11T07:51:18.002Z,-1.62
2023-02-11T07:53:45.780Z,-1.59
2023-02-11T07:56:14.513Z,-1.53
2023-02-11T07:58:43.804Z,-1.49
2023-02-11T08:01:13.543Z,-1.28
2023-02-11T08:03:42.916Z,-1.21
2023-02-11T08:06:15.550Z,-1.24
2023-02-11T08:08:43.354Z,-1.02
2023-02-11T08:11:16.452Z,-1.02
2023-02-11T08:13:45.016Z,-0.88
2023-02-11T08:16:33.018Z,-0.81
2023-02-11T08:19:01.928Z,-0.74
2023-02-11T08:21:29.250Z,-0.57
2023-02-11T08:23:56.382Z,-0.50
2023-02-11T08:26:30.344Z,-0.52
2023-02-11T08:28:59.075Z,-0.52
2023-02-11T08:31:33.237Z,-0.37
2023-02-11T08:33:59.852Z,-0.13
2023-02-11T08:36:38.036Z,0.00
2023-02-11T08:39:18.724Z,-0.08
2023-02-11T08:41:49.147Z,0.01
2023-02-11T08:44:16.915Z,0.36
2023-02-11T08:46:43.354Z,0.23
2023-02-11T08:49:09.920Z,0.67
2023-02-11T08:51:36.517Z,0.62
2023-02-11T08:54:03.382Z,0.75
2023-02-11T08:56:31.622Z,0.84
2023-02-11T08:58:58.336Z,1.25
2023-02-11T09:01:29.121Z,1.00
2023-02-11T09:03:57.297Z,1.13
2023-02-11T09:06:25.574Z,1.41
2023-02-11T09:08:55.265Z,1.57
2023-02-11T09:11:26.444Z,1.27
2023-02-11T09:13:54.538Z,1.12
2023-02-11T09:16:26.884Z,1.44
2023-02-11T09:18:54.097Z,1.15
2023-02-11T09:21:21.967Z,1.23
2023-02-11T09:23:48.846Z,1.11
2023-02-11T09:26:18.305Z,1.22
2023-02-11T09:28:44.855Z,1.56
2023-02-11T09:31:14.371Z,1.67
2023-02-11T09:33:48.381Z,1.79
2023-02-11T09:36:19.034Z,1.71
2023-02-11T09:38:46.620Z,2.37
2023-02-11T09:41:43.294Z,2.27
2023-02-11T09:44:18.872Z,2.59
2023-02-11T09:46:53.873Z,2.31
2023-02-11T09:49:26.446Z,2.11
2023-02-11T09:52:03.770Z,2.05
2023-02-11T09:54:40.700Z,2.29
2023-02-11T09:57:23.003Z,2.09
2023-02-11T09:59:53.347Z,2.15
2023-02-11T10:02:43.317Z,2.02
2023-02-11T10:05:16.760Z,2.20
2023-02-11T10:07:56.216Z,2.26
2023-02-11T10:10:56.906Z,2.68
2023-02-11T10:13:42.451Z,2.69
2023-02-11T10:16:32.972Z,2.84
2023-02-11T10:19:27.578Z,3.19
2023-02-11T10:22:20.468Z,3.53
2023-02-11T10:25:00.483Z,3.39
2023-02-11T10:27:32.321Z,3.90
2023-02-11T10:30:18.664Z,3.53
2023-02-11T10:32:51.300Z,3.41
2023-02-11T10:35:21.647Z,3.61
2023-02-11T10:37:48.801Z,3.69
2023-02-11T10:40:24.876Z,3.74
2023-02-11T10:42:59.499Z,3.63
2023-02-11T10:45:40.035Z,3.59
2023-02-11T10:48:38.644Z,3.91
2023-02-11T10:51:14.039Z,3.73
2023-02-11T10:53:41.296Z,3.83
2023-02-11T10:56:10.894Z,4.17
2023-02-11T10:58:43.847Z,4.02
2023-02-11T11:01:23.739Z,3.98
2023-02-11T11:03:52.442Z,4.12
2023-02-11T11:06:33.840Z,4.69
2023-02-11T11:09:01.046Z,4.54
2023-02-11T11:11:27.942Z,4.70
2023-02-11T11:13:54.321Z,4.49
2023-02-11T11:16:25.381Z,4.17
2023-02-11T11:19:13.544Z,4.33
2023-02-11T11:21:45.084Z,4.84
2023-02-11T11:24:39.840Z,5.38
2023-02-11T11:27:06.803Z,5.08
2023-02-11T11:29:55.245Z,5.37
2023-02-11T11:32:33.698Z,5.81
2023-02-11T11:35:04.361Z,5.98
2023-02-11T11:37:37.168Z,7.13
2023-02-11T11:40:24.582Z,6.34
2023-02-11T11:43:03.770Z,6.65
2023-02-11T11:45:30.498Z,6.54
2023-02-11T11:48:19.357Z,7.25
2023-02-11T11:50:59.928Z,7.04
2023-02-11T11:53:51.153Z,6.58
2023-02-11T11:56:30.148Z,8.21
2023-02-11T11:58:56.964Z,7.92
2023-02-11T12:02:02.440Z,7.47
2023-02-11T12:04:46.479Z,7.55
2023-02-11T12:07:27.053Z,7.66
2023-02-11T12:10:38.861Z,7.67
2023-02-11T12:13:12.182Z,7.85
2023-02-11T12:15:59.844Z,8.08
2023-02-11T12:19:04.037Z,7.79
2023-02-11T12:22:03.989Z,8.90
2023-02-11T12:24:42.995Z,8.85
2023-02-11T12:27:31.625Z,8.75
2023-02-11T12:30:16.472Z,9.02
2023-02-11T12:33:06.720Z,8.55
2023-02-11T12:35:46.792Z,8.68
2023-02-11T12:38:38.014Z,8.49
2023-02-11T12:41:45.492Z,8.88
2023-02-11T12:44:37.529Z,8.51
2023-02-11T12:47:32.516Z,7.93
2023-02-11T12:50:28.076Z,8.01
2023-02-11T12:53:18.713Z,8.00
2023-02-11T12:55:48.947Z,7.63
2023-02-11T12:58:21.770Z,8.54
2023-02-11T13:01:08.769Z,7.78
2023-02-11T13:03:43.175Z,7.24
2023-02-11T13:06:14.658Z,6.87
2023-02-11T13:08:46.145Z,6.83
2023-02-11T13:11:26.787Z,7.05
2023-02-11T13:14:01.952Z,6.76
2023-02-11T13:16:29.752Z,6.86
2023-02-11T13:19:01.663Z,6.53
2023-02-11T13:21:47.834Z,6.70
2023-02-11T13:24:44.415Z,6.54
2023-02-11T13:27:23.901Z,6.41
2023-02-11T13:30:22.495Z,6.10
2023-02-11T13:32:54.897Z,6.17
2023-02-11T13:35:34.899Z,6.42
2023-02-11T13:38:18.674Z,6.27
2023-02-11T13:40:45.922Z,6.16
2023-02-11T13:43:28.829Z,6.07
2023-02-11T13:46:04.995Z,6.45
2023-02-11T13:48:37.904Z,6.47
2023-02-11T13:51:12.304Z,6.43
2023-02-11T13:53:55.862Z,6.25
2023-02-11T13:56:39.978Z,6.18
2023-02-11T13:59:39.161Z,6.26
2023-02-11T14:02:40.640Z,6.17
2023-02-11T14:05:25.688Z,6.19
2023-02-11T14:08:26.103Z,6.27
2023-02-11T14:10:54.749Z,6.28
2023-02-11T14:13:35.503Z,6.12
2023-02-11T14:16:22.677Z,6.01
2023-02-11T14:18:54.587Z,6.01
2023-02-11T14:21:30.389Z,5.96
2023-02-11T14:24:04.711Z,6.12
2023-02-11T14:26:57.888Z,6.01
2023-02-11T14:29:35.193Z,5.99
2023-02-11T14:32:31.087Z,6.02
2023-02-11T14:35:32.028Z,5.86
2023-02-11T14:38:18.354Z,5.89
2023-02-11T14:41:15.915Z,5.86
2023-02-11T14:43:55.873Z,5.82
2023-02-11T14:46:24.671Z,5.77
2023-02-11T14:48:55.387Z,5.90
2023-02-11T14:51:31.720Z,5.82
2023-02-11T14:54:15.302Z,5.76
2023-02-11T14:56:42.476Z,5.91
2023-02-11T14:59:22.554Z,5.99
2023-02-11T15:01:54.680Z,5.93
2023-02-11T15:04:31.020Z,5.85
2023-02-11T15:07:03.218Z,5.85
2023-02-11T15:09:41.612Z,5.85
2023-02-11T15:12:25.097Z,5.80
2023-02-11T15:14:55.500Z,5.85
2023-02-11T15:17:24.889Z,5.72
2023-02-11T15:19:55.355Z,5.78
2023-02-11T15:22:28.123Z,5.78
2023-02-11T15:25:24.185Z,5.80
2023-02-11T15:27:56.650Z,5.74
2023-02-11T15:30:23.162Z,5.80
2023-02-11T15:32:50.837Z,5.92
2023-02-11T15:35:18.579Z,5.96
2023-02-11T15:37:45.456Z,6.07
2023-02-11T15:40:27.912Z,5.94
2023-02-11T15:42:58.521Z,5.87
2023-02-11T15:45:29.079Z,5.91
2023-02-11T15:47:59.742Z,5.94
2023-02-11T15:50:33.301Z,5.94
2023-02-11T15:53:23.445Z,5.85
2023-02-11T15:55:53.044Z,5.89
2023-02-11T15:58:20.716Z,5.90
2023-02-11T16:00:50.750Z,5.83
2023-02-11T16:03:32.817Z,5.79
2023-02-11T16:06:16.012Z,5.92
2023-02-11T16:08:43.315Z,5.91
2023-02-11T16:11:26.198Z,5.88
2023-02-11T16:13:52.828Z,5.77
2023-02-11T16:16:25.985Z,5.78
2023-02-11T16:19:05.674Z,5.75
2023-02-11T16:21:42.578Z,5.72
2023-02-11T16:24:19.556Z,5.63
2023-02-11T16:26:50.269Z,5.61
2023-02-11T16:29:22.194Z,5.56
2023-02-11T16:31:50.433Z,5.47
2023-02-11T16:34:19.130Z,5.52
2023-02-11T16:36:46.667Z,5.53
2023-02-11T16:39:13.102Z,5.47
2023-02-11T16:41:39.698Z,5.39
2023-02-11T16:44:06.521Z,5.36
2023-02-11T16:46:33.728Z,5.41
2023-02-11T16:49:10.776Z,5.35
2023-02-11T16:51:41.529Z,5.42
2023-02-11T16:54:13.594Z,5.42
2023-02-11T16:56:43.217Z,5.39
2023-02-11T16:59:09.868Z,5.42
2023-02-11T17:01:39.494Z,5.42
2023-02-11T17:04:07.002Z,5.37
2023-02-11T17:06:34.763Z,5.36
2023-02-11T17:09:01.352Z,5.32
2023-02-11T17:11:27.702Z,5.35
2023-02-11T17:13:54.104Z,5.38
2023-02-11T17:16:23.354Z,5.39
2023-02-11T17:18:49.806Z,5.39
2023-02-11T17:21:16.529Z,5.36
2023-02-11T17:23:43.121Z,5.25
2023-02-11T17:26:09.980Z,5.20
2023-02-11T17:28:36.767Z,5.14
2023-02-11T17:31:08.963Z,5.12
2023-02-11T17:33:37.680Z,5.14
2023-02-11T17:36:06.806Z,5.12
2023-02-11T17:38:35.317Z,5.11
2023-02-11T17:41:03.895Z,5.06
2023-02-11T17:43:30.977Z,5.06
2023-02-11T17:45:58.360Z,5.04
2023-02-11T17:48:25.051Z,5.01
2023-02-11T17:50:51.605Z,4.94
2023-02-11T17:53:18.272Z,4.80
2023-02-11T17:55:44.912Z,4.80
2023-02-11T17:58:11.585Z,4.78
2023-02-11T18:00:38.093Z,4.73
2023-02-11T18:03:04.969Z,4.69
2023-02-11T18:05:38.161Z,4.68
2023-02-11T18:08:06.600Z,4.63
2023-02-11T18:10:34.311Z,4.48
2023-02-11T18:13:01.850Z,4.49
2023-02-11T18:15:28.523Z,4.51
2023-02-11T18:17:56.030Z,4.49
2023-02-11T18:20:22.624Z,4.45
2023-02-11T18:22:49.307Z,4.44
2023-02-11T18:25:15.988Z,4.47
2023-02-11T18:27:42.419Z,4.49
2023-02-11T18:30:15.631Z,4.50
2023-02-11T18:32:42.612Z,4.49
2023-02-11T18:35:15.208Z,4.46
2023-02-11T18:37:42.739Z,4.50
2023-02-11T18:40:10.842Z,4.46
2023-02-11T18:42:38.105Z,4.39
2023-02-11T18:45:07.345Z,4.39
2023-02-11T18:47:34.016Z,4.43
2023-02-11T18:50:00.342Z,4.42
2023-02-11T18:52:26.704Z,4.40
2023-02-11T18:54:53.094Z,4.39
2023-02-11T18:57:19.711Z,4.39
2023-02-11T18:59:46.088Z,4.34
2023-02-11T19:02:12.743Z,4.35
2023-02-11T19:04:39.378Z,4.31
2023-02-11T19:07:06.098Z,4.34
2023-02-11T19:09:32.559Z,4.26
2023-02-11T19:12:00.969Z,4.24
2023-02-11T19:14:33.519Z,4.24
2023-02-11T19:17:03.382Z,4.24
2023-02-11T19:19:31.484Z,4.22
2023-02-11T19:22:01.286Z,4.26
2023-02-11T19:24:30.011Z,4.32
2023-02-11T19:26:59.102Z,4.37
2023-02-11T19:29:26.786Z,4.34
2023-02-11T19:31:53.326Z,4.34
2023-02-11T19:34:20.708Z,4.28
2023-02-11T19:36:49.155Z,4.24
2023-02-11T19:39:16.113Z,4.22
2023-02-11T19:41:43.122Z,4.24
2023-02-11T19:44:10.085Z,4.21
2023-02-11T19:46:41.173Z,4.13
2023-02-11T19:49:10.035Z,4.10
2023-02-11T19:51:39.148Z,4.15
2023-02-11T19:54:06.893Z,4.20
2023-02-11T19:56:34.162Z,4.15
2023-02-11T19:59:02.918Z,4.17
2023-02-11T20:01:29.700Z,4.23
2023-02-11T20:03:57.488Z,4.22
2023-02-11T20:06:29.360Z,4.22
2023-02-11T20:09:00.709Z,4.29
2023-02-11T20:11:30.278Z,4.32
2023-02-11T20:13:57.561Z,4.32
2023-02-11T20:16:41.032Z,4.32
2023-02-11T20:19:18.385Z,4.37
2023-02-11T20:21:47.773Z,4.37
2023-02-11T20:24:15.398Z,4.37
2023-02-11T20:26:42.679Z,4.38
2023-02-11T20:29:09.275Z,4.38
2023-02-11T20:31:35.861Z,4.30
2023-02-11T20:34:02.910Z,4.35
2023-02-11T20:36:32.395Z,4.33
2023-02-11T20:39:00.331Z,4.34
2023-02-11T20:41:31.040Z,4.16
2023-02-11T20:44:00.122Z,4.17
2023-02-11T20:46:29.317Z,4.09
2023-02-11T20:48:57.407Z,4.17
2023-02-11T20:51:26.942Z,4.21
2023-02-11T20:53:53.818Z,4.22
2023-02-11T20:56:26.114Z,4.23
2023-02-11T20:58:53.274Z,4.25
2023-02-11T21:01:29.809Z,4.20
2023-02-11T21:04:02.698Z,4.19
2023-02-11T21:06:41.498Z,4.16
2023-02-11T21:09:09.765Z,4.21
2023-02-11T21:11:39.053Z,4.18
2023-02-11T21:14:05.530Z,4.19
2023-02-11T21:16:32.519Z,4.20
2023-02-11T21:19:00.475Z,4.20
2023-02-11T21:21:27.201Z,4.20
2023-02-11T21:23:53.986Z,4.19
2023-02-11T21:26:20.714Z,4.19
2023-02-11T21:28:48.661Z,4.10
2023-02-11T21:31:25.210Z,4.14
2023-02-11T21:33:54.836Z,4.01
2023-02-11T21:36:22.585Z,3.96
2023-02-11T21:38:51.313Z,3.96
2023-02-11T21:41:19.417Z,4.05
2023-02-11T21:43:45.803Z,3.94
2023-02-11T21:46:14.603Z,3.96
2023-02-11T21:48:41.531Z,3.96
2023-02-11T21:51:18.854Z,3.88
2023-02-11T21:53:45.588Z,3.97
2023-02-11T21:56:17.597Z,3.98
2023-02-11T21:58:45.543Z,4.05
2023-02-11T22:01:17.359Z,4.07
2023-02-11T22:03:44.086Z,4.09
2023-02-11T22:06:13.124Z,4.09
2023-02-11T22:08:40.077Z,4.07
2023-02-11T22:11:09.924Z,4.03
2023-02-11T22:13:37.719Z,4.01
2023-02-11T22:16:07.406Z,4.02
2023-02-11T22:18:34.418Z,4.04
2023-02-11T22:21:11.773Z,4.04
2023-02-11T22:23:40.606Z,4.12
2023-02-11T22:26:10.248Z,4.13
2023-02-11T22:28:39.162Z,4.09
2023-02-11T22:31:06.285Z,4.08
2023-02-11T22:33:33.192Z,4.13
2023-02-11T22:36:05.906Z,4.21
2023-02-11T22:38:33.062Z,4.19
2023-02-11T22:41:04.989Z,4.22
2023-02-11T22:43:31.762Z,4.20
2023-02-11T22:46:02.482Z,4.13
2023-02-11T22:48:29.265Z,4.16
2023-02-11T22:50:55.955Z,4.17
2023-02-11T22:53:25.440Z,4.17
2023-02-11T22:55:52.450Z,4.25
2023-02-11T22:58:19.281Z,4.26
2023-02-11T23:00:46.038Z,4.28
2023-02-11T23:03:12.972Z,4.30
2023-02-11T23:05:41.194Z,4.32
2023-02-11T23:08:09.689Z,4.23
2023-02-11T23:10:37.465Z,4.27
2023-02-11T23:13:05.667Z,4.26
2023-02-11T23:15:33.077Z,4.21
2023-02-11T23:17:59.987Z,4.20
2023-02-11T23:20:26.642Z,4.24
2023-02-11T23:22:53.262Z,4.26
2023-02-11T23:25:19.932Z,4.25
2023-02-11T23:27:46.319Z,4.23
2023-02-11T23:30:13.285Z,4.22
2023-02-11T23:32:39.735Z,4.22
2023-02-11T23:35:06.502Z,4.22
2023-02-11T23:37:33.099Z,4.12
2023-02-11T23:39:59.879Z,4.05
2023-02-11T23:42:26.453Z,4.13
2023-02-11T23:44:52.806Z,4.11
2023-02-11T23:47:19.305Z,4.09
2023-02-11T23:49:45.892Z,3.98
2023-02-11T23:52:12.234Z,3.94
2023-02-11T23:54:38.801Z,4.02
2023-02-11T23:57:05.378Z,4.05
2023-02-11T23:59:31.939Z,4.08
